Logo AVAMET
Benvolgut visitant, si us plau, ingressa Recuperar contrasenya
AVAMET paisatges

Betxí

Dades diàries. Acumulats / Últims 30 dies disponibles

Data Temperatura (°C) Humitat rel. (%) Pressió rel. (hPa) Vent (km/h) Precipitació
Mínima Mitjana Màxima Amplitud
tèrmica
Mínima Mitjana Màxima Mínima Mitjana Màxima Predom. Mitjana Ràfega
màxima
Total
(mm)
Índex-n
Mínima Mitjana Màxima Mínima Mitjana Màxima n
0 a 1
P0 max
mm 5'
Dades mensuals acumulades fins l'últim dia disponible
02/2020 5,9 9,9 13,7 14,0 14,0 19,2 25,5 19,6 34 72 92 1.020 1.026 1.034   3,2 33,8 0,8
Dades anuals acumulades fins l'últim dia disponible
2020 2,7 7,9 13,8 11,9 9,2 17,1 25,5 22,8 34 73 93 1.015 1.026 1.034   3,9 51,5 70,0
Últims 30 dies disponibles
19-02-2020 7,5     12,5     16,7 9,2 40 69 88 1.029 1.031 1.033 NW 4,0 24,1 0,0
18-02-2020 11,1     12,9     14,0 2,9 67 79 88 1.030 1.032 1.034 SW 1,6 11,3 0,8
17-02-2020 9,4     12,9     18,5 9,1 66 82 92 1.024 1.026 1.030 ESE 2,7 12,9 0,0
16-02-2020 7,8     12,1     17,4 9,6 66 83 91 1.025 1.027 1.028 WNW 3,1 14,5 0,0
15-02-2020 8,3     12,4     17,5 9,2 63 79 88 1.025 1.026 1.028 NW 3,1 19,3 0,0
14-02-2020 10,9     15,1     21,2 10,3 43 65 82 1.024 1.025 1.027 NW 4,0 22,5 0,0
13-02-2020 10,4     13,7     19,0 8,6 61 81 88 1.021 1.023 1.024 WNW 3,1 20,9 0,0
12-02-2020 12,3     14,4     17,3 5,0 64 77 88 1.023 1.024 1.026 ESE 2,7 17,7 0,0
11-02-2020 12,7     16,9     23,3 10,6 43 60 77 1.022 1.024 1.026 NW 3,1 12,9 0,0
10-02-2020 8,9     15,6     23,1 14,2 47 68 88 1.025 1.028 1.030 WNW 2,9 19,3 0,0
09-02-2020 7,3     11,6     16,7 9,4 61 81 89 1.027 1.029 1.032 WNW 3,2 25,7 0,0
08-02-2020 7,1     11,3     15,6 8,5 65 79 87 1.024 1.025 1.028 WNW 2,6 16,1 0,0
07-02-2020 9,2     11,6     14,7 5,5 64 76 84 1.024 1.025 1.027 WNW 1,4 14,5 0,0
06-02-2020 5,9     10,2     15,7 9,8 55 78 88 1.026 1.027 1.029 NW 3,7 25,7 0,0
05-02-2020 7,1     11,3     15,3 8,2 51 67 87 1.027 1.029 1.031 SW 3,5 20,9 0,0
04-02-2020 13,7     19,1     24,3 10,6 34 46 73 1.022 1.024 1.027 NW 5,6 33,8 0,0
03-02-2020 13,0     17,5     25,1 12,1 39 64 80 1.026 1.028 1.029 WNW 3,5 19,3 0,0
02-02-2020 13,3     17,5     23,9 10,6 44 64 80 1.025 1.027 1.029 NW 3,5 14,5 0,0
01-02-2020 11,5     17,4     25,5 14,0 39 62 75 1.020 1.022 1.026 WNW 3,7 30,6 0,0
31-01-2020 12,2     15,8     21,7 9,5 48 67 81 1.021 1.022 1.023 WNW 3,1 20,9 0,0
30-01-2020 12,8     16,1     22,1 9,3 44 62 75 1.019 1.021 1.022 NW 3,2 17,7 0,0
29-01-2020 13,8     17,4     21,8 8,0 44 59 75 1.020 1.021 1.023 WNW 5,8 29,0 0,0
28-01-2020 11,9     16,4     20,3 8,4 50 59 70 1.019 1.020 1.021 SW 4,5 27,4 0,0
27-01-2020 6,3     11,0     16,2 9,9 52 67 84 1.019 1.022 1.025 WNW 3,1 14,5 0,0
26-01-2020 7,5     11,2     16,7 9,2 54 80 91 1.019 1.021 1.025 WNW 3,1 17,7 0,2
25-01-2020 9,2     11,4     14,3 5,1 74 84 89 1.018 1.020 1.022 NW 2,1 11,3 0,8
24-01-2020 7,1     10,8     15,7 8,6 60 82 89 1.021 1.022 1.024 WNW 2,4 20,9 0,0
23-01-2020 6,6     10,3     14,0 7,4 66 79 85 1.019 1.021 1.024 NW 3,1 17,7 0,0
22-01-2020 8,7     11,6     14,9 6,2 68 80 89 1.017 1.020 1.021 NW 4,7 24,1 0,0
21-01-2020 6,3     9,3     13,3 7,0 80 89 93 1.015 1.018 1.023 N 12,4 51,5 39,0
Últims 13 mesos disponibles
01/2020 2,7 6,8 13,8 10,6 9,2 15,8 22,1 19,4 57 74 89 1.018 1.026 1.033 NW 4,3 51,5 69,2
12/2019 4,3 9,8 17,3 13,4 12,3 17,8 24,9 20,6 43 69 90 1.001 1.019 1.033 NW 4,8 61,2 120,4
11/2019 5,9 11,2 17,9 15,0 13,9 19,2 26,3 20,4 40 52 74 997 1.009 1.016 NW 6,6 54,7 2,2
10/2019 10,1 15,4 19,8 19,6 15,8 24,4 28,8 18,7 45 69 85 1.007 1.016 1.022 NW 4,1 54,7 17,4
09/2019 14,8 19,3 22,7 23,1 21,0 27,4 31,6 16,8 49 71 81 1.010 1.018 1.026 NW 4,7 43,5 52,8
08/2019 16,7 21,3 25,5 25,8 26,3 30,3 34,8 18,1 55 68 78 1.011 1.016 1.021 ESE 4,4 53,1 59,8
07/2019 20,4 21,7 24,1 26,6 27,5 31,1 35,2 14,8 45 61 77 1.006 1.014 1.021 ESE 4,7 30,6 22,2
06/2019 11,2 17,5 22,3 22,7 22,0 27,5 37,7 26,5 35 58 74 1.008 1.016 1.022 ESE 4,9 53,1 0,0
05/2019 8,9 13,5 16,7 18,1 18,3 22,9 28,4 19,5 47 63 86 1.005 1.016 1.025 NW 5,0 48,3 25,4
04/2019 7,4 11,2 14,1 15,3 15,8 19,9 27,7 20,3 36 60 88 999 1.013 1.025 NW 6,2 51,5 55,4
03/2019 6,5 9,3 14,2 14,4 12,2 19,9 26,1 19,6 36 53 82 1.010 1.023 1.030 NW 4,6 53,1 23,4
10/2018 8,3 14,5 17,7 18,5 14,6 22,6 27,3 19,0 42 71 94 998 1.014 1.025 NW 2,9 70,8 228,0
09/2018 17,3 20,3 23,0 24,4 24,6 28,1 31,1 13,8 49 73 85 1.012 1.019 1.029 SE 2,6 32,2 59,4
Tots els anys disponibles
2017 0,8 13,7 25,1 18,1 8,5 22,7 36,5 35,7 WNW 3,7 75,6 422,0
2016 2,7 13,8 26,4 17,8 8,2 21,9 34,6 31,9 52 61 68 1.014 1.015 1.019 3,5 81,0 485,2
Temperatura (°C)
Humitat relativa (%)
Velocitat del vent i ràfega màxima (km/h)
Direcció del vent (°)
Pressió (hPa)
Precipitació (mm)
Nota sobre les dades: s'avisa a l'usuari de la provisionalitat i no oficialitat d'aquestes dades
Logo AVAMET blanc
Web allotjada a Sollutia
Llicència de Creative CommonsLa web d'AVAMET i els seus continguts estan subjectes a una llicència de
Reconeixement - No Comercial - Compartir igual
Últimes estacions:  Sorita (AVAMET), Gorga (Soci), Massalavés - Ajuntament (Soci/Inforatge), Albuixech - Polígon (Inforatge), La Torre d'en Besora (Ajuntament soci), Xixona - Sogorb Barranc Blanc (Soci), Pedreguer - Patronat (Soci) - - -